Time;durP1;ratioP1;P1;durP2;ratioP2;P2;SDS_P1;SDS_P2;PMS_P1;PMS_P2;Temp;Humidity;BMP_temperature;BMP_pressure;BME280_temperature;BME280_humidity;BME280_pressure;Samples;Min_cycle;Max_cycle;Signal;HPM_P1;HPM_P2
2022/07/27 00:03:01;;;;;;;5.05;2.70;;;;;;;16.18;65.34;100166.42;2051508;86;30197;-64
2022/07/27 00:06:03;;;;;;;4.28;2.40;;;;;;;16.12;65.59;100166.40;2081568;85;31432;-65
2022/07/27 00:09:04;;;;;;;4.12;2.70;;;;;;;16.08;65.61;100168.95;2081595;85;33077;-63
2022/07/27 00:12:06;;;;;;;4.67;2.55;;;;;;;16.03;65.70;100163.90;2046105;87;30980;-64
2022/07/27 00:15:09;;;;;;;3.83;2.58;;;;;;;15.98;65.84;100166.07;2046279;87;28193;-64
2022/07/27 00:18:11;;;;;;;4.67;2.60;;;;;;;15.91;65.95;100160.27;2027290;87;28711;-66
2022/07/27 00:21:13;;;;;;;6.12;3.00;;;;;;;15.86;66.11;100162.47;2081999;85;31080;-65
2022/07/27 00:24:14;;;;;;;4.83;2.87;;;;;;;15.82;66.14;100167.69;2081873;85;33068;-64
2022/07/27 00:27:16;;;;;;;7.08;2.25;;;;;;;15.78;66.31;100171.58;2084623;85;29109;-66
2022/07/27 00:30:18;;;;;;;3.58;2.42;;;;;;;15.75;66.46;100175.38;2085884;84;28301;-61
2022/07/27 00:33:20;;;;;;;4.45;2.98;;;;;;;15.72;66.51;100175.59;2030512;86;29578;-61
2022/07/27 00:36:22;;;;;;;5.80;2.52;;;;;;;15.68;66.66;100174.59;2085289;85;31107;-61
2022/07/27 00:39:23;;;;;;;4.28;3.00;;;;;;;15.64;66.78;100184.73;2085444;85;33315;-61
2022/07/27 00:42:28;;;;;;;5.20;2.77;;;;;;;15.58;67.04;100186.55;2069331;86;30859;-61
2022/07/27 00:45:30;;;;;;;3.47;3.17;;;;;;;15.54;67.12;100191.79;2085460;85;27754;-62
2022/07/27 00:48:31;;;;;;;3.20;2.22;;;;;;;15.39;67.26;100185.17;2085582;84;28731;-62
2022/07/27 00:51:33;;;;;;;4.15;2.45;;;;;;;15.39;67.48;100194.62;2085765;85;31723;-62
2022/07/27 00:54:34;;;;;;;2.83;2.55;;;;;;;15.39;67.48;100194.62;2030842;87;33386;-62
2022/07/27 00:57:36;;;;;;;3.00;2.15;;;;;;;15.37;67.58;100193.87;2085283;85;30820;-62
2022/07/27 01:00:38;;;;;;;3.65;3.35;;;;;;;15.20;67.70;100177.55;2085545;85;27655;-62
2022/07/27 01:03:40;;;;;;;3.75;2.83;;;;;;;15.27;67.81;100196.36;2057706;86;29542;-62
2022/07/27 01:06:41;;;;;;;4.83;3.22;;;;;;;15.24;67.92;100194.38;2085549;84;31410;-62
2022/07/27 01:09:56;;;;;;;4.55;2.83;;;;;;;15.15;68.11;100189.98;2085067;85;34243;-62
2022/07/27 01:12:58;;;;;;;5.22;3.17;;;;;;;15.15;68.11;100189.98;2030844;87;30003;-63
2022/07/27 01:16:00;;;;;;;6.35;3.10;;;;;;;15.10;68.30;100192.17;2085240;85;27707;-62
2022/07/27 01:19:01;;;;;;;3.92;3.60;;;;;;;15.07;68.23;100195.55;2085414;85;29986;-62
2022/07/27 01:22:06;;;;;;;6.33;3.27;;;;;;;15.02;68.47;100200.80;2070752;86;31347;-62
2022/07/27 01:25:08;;;;;;;;;;;;;;;14.99;68.69;100202.36;2043710;85;33047;-63
2022/07/27 01:28:09;;;;;;;4.92;2.72;;;;;;;14.96;68.97;100208.47;2065876;86;29757;-63
2022/07/27 01:31:11;;;;;;;4.62;3.10;;;;;;;14.91;68.83;100204.72;2046224;86;27601;-63
2022/07/27 01:34:13;;;;;;;3.80;2.90;;;;;;;14.88;68.86;100202.25;2046225;87;29066;-62
2022/07/27 01:37:15;;;;;;;3.27;2.75;;;;;;;14.86;68.87;100200.14;2081850;85;30979;-62
2022/07/27 01:40:18;;;;;;;3.42;3.05;;;;;;;14.80;69.12;100197.86;2027092;87;33033;-62
2022/07/27 01:43:21;;;;;;;3.45;3.15;;;;;;;14.80;69.12;100197.86;2081493;85;30315;-62
2022/07/27 01:46:22;;;;;;;3.33;3.02;;;;;;;14.78;69.31;100203.37;2082272;85;27714;-62
2022/07/27 01:49:23;;;;;;;7.08;3.00;;;;;;;14.76;69.47;100200.38;2027454;87;28743;-63
2022/07/27 01:52:25;;;;;;;3.47;3.20;;;;;;;14.74;69.58;100195.95;2082075;85;31413;-63
2022/07/27 01:55:26;;;;;;;6.55;3.33;;;;;;;14.74;69.71;100200.50;2027319;87;33349;-62
2022/07/27 01:58:27;;;;;;;3.22;2.92;;;;;;;14.73;69.80;100204.16;2081983;85;30769;-62
2022/07/27 02:01:30;;;;;;;3.47;3.17;;;;;;;14.73;70.00;100204.16;2027355;87;27710;-63
2022/07/27 02:04:31;;;;;;;5.00;3.47;;;;;;;14.59;70.07;100187.55;2082190;85;28457;-63
2022/07/27 02:07:33;;;;;;;4.25;3.85;;;;;;;14.72;70.16;100209.17;2082177;85;31377;-62
2022/07/27 02:12:34;;;;;;;3.72;2.92;;;;;;;14.73;70.33;100205.52;2061041;86;33387;-62
2022/07/27 02:13:46;;;;;;;5.37;3.35;;;;;;;14.73;70.35;100193.37;2046434;86;29609;-63
2022/07/27 02:16:47;;;;;;;4.85;3.62;;;;;;;14.74;70.35;100211.29;2082172;85;27563;-63
2022/07/27 02:19:48;;;;;;;4.42;3.30;;;;;;;14.76;70.47;100199.91;2082279;85;29015;-63
2022/07/27 02:22:50;;;;;;;3.55;3.22;;;;;;;14.78;70.64;100206.07;2082270;85;31380;-63
2022/07/27 02:25:51;;;;;;;7.80;3.90;;;;;;;14.81;70.89;100213.08;2027189;86;33390;-63
2022/07/27 02:28:54;;;;;;;5.62;3.62;;;;;;;14.86;71.04;100214.98;2058424;85;30960;-62
2022/07/27 02:31:56;;;;;;;5.00;4.50;;;;;;;14.86;71.04;100214.98;2081904;85;27720;-62
2022/07/27 02:34:58;;;;;;;4.15;3.67;;;;;;;14.88;71.13;100215.24;2036173;86;29942;-62
2022/07/27 02:37:59;;;;;;;5.30;3.67;;;;;;;14.92;71.22;100221.78;2082298;85;31368;-62
2022/07/27 02:41:00;;;;;;;6.80;5.15;;;;;;;14.94;71.30;100222.54;2082277;85;32988;-62
2022/07/27 02:44:02;;;;;;;7.53;5.25;;;;;;;14.94;71.30;100228.78;2027359;87;30019;-63
2022/07/27 02:47:03;;;;;;;6.17;4.35;;;;;;;14.98;71.63;100226.27;2082211;85;27599;-63
2022/07/27 02:50:07;;;;;;;4.78;4.25;;;;;;;14.98;71.63;100226.27;2082078;85;28581;-63
2022/07/27 02:53:08;;;;;;;7.20;4.72;;;;;;;15.01;71.68;100229.22;2057530;86;31733;-62
2022/07/27 02:56:09;;;;;;;7.92;4.35;;;;;;;15.06;72.04;100210.04;2082156;85;33385;-63
2022/07/27 02:59:11;;;;;;;4.90;4.08;;;;;;;15.06;72.04;100210.04;2082167;85;29660;-63
2022/07/27 03:02:12;;;;;;;4.58;3.90;;;;;;;14.86;71.87;100172.67;2027383;87;27790;-63
2022/07/27 03:05:13;;;;;;;7.40;4.58;;;;;;;15.10;71.93;100210.17;2082104;85;28730;-63
2022/07/27 03:08:15;;;;;;;5.20;4.70;;;;;;;15.11;71.92;100209.20;2027387;87;31435;-63
2022/07/27 03:11:16;;;;;;;4.60;4.20;;;;;;;15.12;71.89;100209.13;2082116;85;33658;-63
2022/07/27 03:14:17;;;;;;;5.72;4.35;;;;;;;15.16;72.15;100222.75;2027375;87;29562;-63
2022/07/27 03:17:18;;;;;;;7.30;4.58;;;;;;;15.16;72.15;100222.75;2082234;85;27603;-62
2022/07/27 03:20:20;;;;;;;6.67;4.28;;;;;;;15.19;72.20;100233.33;2082049;85;28686;-63
2022/07/27 03:23:23;;;;;;;6.15;4.05;;;;;;;15.22;72.22;100232.75;2056239;86;31111;-63
2022/07/27 03:26:24;;;;;;;6.37;4.25;;;;;;;15.25;72.28;100238.78;2067146;86;33054;-62
2022/07/27 03:29:26;;;;;;;8.83;4.53;;;;;;;15.34;72.57;100235.45;2066731;86;31076;-63
2022/07/27 03:32:27;;;;;;;5.47;4.25;;;;;;;15.34;72.57;100235.45;2031498;87;27775;-63
2022/07/27 03:35:28;;;;;;;9.43;4.75;;;;;;;15.40;72.61;100231.45;2095806;84;29893;-63
2022/07/27 03:38:29;;;;;;;5.65;5.00;;;;;;;15.47;72.73;100235.92;2097786;84;30770;-63
2022/07/27 03:41:30;;;;;;;4.35;3.95;;;;;;;15.54;72.71;100236.34;2101811;84;34084;-63
2022/07/27 03:44:32;;;;;;;5.62;4.90;;;;;;;15.67;72.74;100223.67;2084017;84;29396;-63
2022/07/27 03:47:34;;;;;;;4.53;4.12;;;;;;;15.74;72.91;100216.87;2063277;86;27649;-63
2022/07/27 03:50:35;;;;;;;8.08;5.05;;;;;;;15.74;72.91;100216.87;2060835;86;29174;-63
2022/07/27 03:53:36;;;;;;;7.08;4.62;;;;;;;15.72;72.93;100204.46;2061416;84;32167;-63
2022/07/27 03:56:38;;;;;;;7.90;4.75;;;;;;;16.02;73.01;100220.27;2060288;85;34185;-63
2022/07/27 03:59:39;;;;;;;8.50;4.67;;;;;;;16.02;73.01;100220.27;2060487;86;30751;-61
2022/07/27 04:02:41;;;;;;;5.00;4.60;;;;;;;16.12;72.95;100215.55;2060532;86;27762;-62
2022/07/27 04:05:42;;;;;;;8.28;4.70;;;;;;;16.31;72.88;100209.62;2090730;84;29088;-63
2022/07/27 04:08:43;;;;;;;5.15;4.65;;;;;;;16.31;72.88;100209.62;2101776;84;32152;-63
2022/07/27 04:11:44;;;;;;;5.90;4.70;;;;;;;16.39;72.87;100210.77;2097938;84;33312;-63
2022/07/27 04:14:45;;;;;;;5.33;4.45;;;;;;;16.51;72.79;100203.56;2082910;84;30838;-63
2022/07/27 04:17:47;;;;;;;10.28;7.67;;;;;;;16.67;72.83;100201.03;2063369;84;27924;-62
2022/07/27 04:20:49;;;;;;;10.18;5.45;;;;;;;16.83;72.84;100198.87;2060492;86;29852;-63
2022/07/27 04:23:50;;;;;;;12.15;4.85;;;;;;;17.03;72.76;100192.90;2060852;86;31996;-62
2022/07/27 04:26:52;;;;;;;8.38;4.47;;;;;;;17.19;72.56;100200.17;2061629;86;32879;-62
2022/07/27 04:29:53;;;;;;;5.65;4.25;;;;;;;17.33;72.35;100203.16;2064024;86;30864;-62
2022/07/27 04:32:55;;;;;;;7.53;4.20;;;;;;;17.44;72.09;100207.20;2064418;86;27674;-63
2022/07/27 04:35:56;;;;;;;5.40;3.90;;;;;;;17.52;71.95;100205.23;2064122;86;28551;-62
2022/07/27 04:38:57;;;;;;;6.33;4.47;;;;;;;17.60;71.89;100210.91;2064179;86;31505;-63
2022/07/27 04:41:58;;;;;;;6.22;4.10;;;;;;;17.68;71.80;100213.47;2064237;86;32705;-62
2022/07/27 04:45:00;;;;;;;15.65;4.47;;;;;;;17.74;71.73;100212.48;2064265;86;29390;-62
2022/07/27 04:48:07;;;;;;;7.85;4.80;;;;;;;17.78;71.52;100211.77;2064043;86;27813;-62
2022/07/27 04:51:13;;;;;;;6.47;4.40;;;;;;;17.81;71.27;100204.71;2063905;85;29766;-62
2022/07/27 04:54:15;;;;;;;5.78;4.42;;;;;;;17.85;71.23;100210.25;2064223;86;30616;-63
2022/07/27 04:57:16;;;;;;;4.65;4.25;;;;;;;17.89;71.18;100212.20;2063989;85;33254;-62
2022/07/27 05:00:18;;;;;;;5.78;4.10;;;;;;;17.92;71.00;100216.91;2063990;86;30103;-62
2022/07/27 05:03:19;;;;;;;5.80;4.30;;;;;;;17.96;70.85;100202.60;2064220;86;28193;-63
2022/07/27 05:06:22;;;;;;;5.83;4.78;;;;;;;17.99;70.66;100198.32;2064306;86;28430;-62
2022/07/27 05:09:23;;;;;;;6.58;4.58;;;;;;;17.99;70.44;100194.25;2064149;85;31011;-62
2022/07/27 05:12:25;;;;;;;7.35;4.58;;;;;;;18.02;70.47;100189.94;2063203;86;32953;-62
2022/07/27 05:15:26;;;;;;;8.43;5.20;;;;;;;18.09;70.42;100189.41;2064281;86;30032;-62
2022/07/27 05:18:27;;;;;;;5.85;4.37;;;;;;;18.32;70.86;100203.27;2064508;86;27582;-62
2022/07/27 05:21:28;;;;;;;7.22;3.92;;;;;;;19.17;71.26;100215.56;2064497;86;29040;-62
2022/07/27 05:24:29;;;;;;;8.45;4.55;;;;;;;20.23;70.84;100223.89;2085417;85;31009;-62
2022/07/27 05:27:31;;;;;;;5.78;4.15;;;;;;;21.29;69.41;100232.66;2084067;84;32999;-62
2022/07/27 05:30:32;;;;;;;9.40;4.80;;;;;;;21.96;67.66;100230.70;2027390;87;30066;-62
2022/07/27 05:33:34;;;;;;;5.25;3.90;;;;;;;22.35;66.44;100237.78;2081866;85;27766;-63
2022/07/27 05:36:35;;;;;;;8.68;3.90;;;;;;;22.55;65.46;100238.52;2060570;86;29897;-62
2022/07/27 05:39:36;;;;;;;5.55;3.90;;;;;;;22.63;64.63;100233.63;2060838;86;31365;-59
2022/07/27 05:42:37;;;;;;;4.95;4.33;;;;;;;22.72;64.37;100232.70;2082141;85;33298;-60
2022/07/27 05:45:40;;;;;;;7.53;4.00;;;;;;;22.79;63.67;100237.03;2012459;87;29500;-61
2022/07/27 05:48:42;;;;;;;5.70;3.12;;;;;;;22.80;63.28;100229.68;2082538;85;27663;-62
2022/07/27 05:51:43;;;;;;;5.42;4.17;;;;;;;22.83;62.90;100229.38;2027353;87;28671;-63
2022/07/27 05:54:46;;;;;;;7.30;3.87;;;;;;;22.86;62.60;100222.23;2081800;85;31047;-62
2022/07/27 05:57:48;;;;;;;11.80;4.35;;;;;;;22.88;62.28;100225.14;2082080;85;33819;-62
2022/07/27 06:00:49;;;;;;;5.00;4.35;;;;;;;22.94;61.90;100235.09;2061536;86;29984;-62
2022/07/27 06:03:51;;;;;;;6.08;3.50;;;;;;;22.95;61.54;100240.91;2038206;86;27816;-62
2022/07/27 06:10:12;;;;;;;6.75;3.85;;;;;;;22.95;60.96;100245.85;2081947;85;32274;-62
2022/07/27 06:13:15;;;;;;;6.22;3.27;;;;;;;22.85;60.52;100245.09;2081968;85;33791;-62
2022/07/27 06:16:17;;;;;;;6.33;3.75;;;;;;;22.80;60.58;100251.53;2061078;86;29398;-62
2022/07/27 06:19:19;;;;;;;9.68;3.95;;;;;;;22.79;60.35;100242.98;2082347;85;27655;-62
2022/07/27 06:22:21;;;;;;;9.13;3.72;;;;;;;22.79;60.32;100242.98;2055515;86;28457;-62
2022/07/27 06:25:24;;;;;;;6.65;3.87;;;;;;;22.76;60.06;100243.64;2082065;85;31061;-62
2022/07/27 06:28:26;;;;;;;4.95;4.45;;;;;;;22.76;60.03;100251.00;2083787;85;33862;-61
2022/07/27 06:31:29;;;;;;;11.15;4.47;;;;;;;22.81;59.84;100250.03;2030619;87;30844;-62
2022/07/27 06:34:31;;;;;;;4.47;3.43;;;;;;;22.84;59.43;100252.94;2085837;85;27691;-62
2022/07/27 06:37:33;;;;;;;5.85;3.77;;;;;;;22.84;59.34;100249.69;2070836;85;28813;-62
2022/07/27 06:40:35;;;;;;;8.48;4.33;;;;;;;22.87;59.22;100243.91;2070642;86;31816;-61
2022/07/27 06:43:37;;;;;;;7.33;3.72;;;;;;;22.87;58.94;100245.80;2051508;86;33067;-61
2022/07/27 06:46:39;;;;;;;3.83;3.20;;;;;;;22.88;58.97;100246.16;2085933;85;29070;-61
2022/07/27 06:49:40;;;;;;;9.98;4.33;;;;;;;22.99;59.03;100240.95;2085469;85;27604;-62
2022/07/27 06:52:42;;;;;;;4.97;3.30;;;;;;;23.12;58.82;100248.22;2030462;87;29247;-61
2022/07/27 06:55:44;;;;;;;6.95;3.75;;;;;;;23.23;58.44;100250.36;2085103;85;31930;-61
2022/07/27 06:58:45;;;;;;;5.87;3.22;;;;;;;23.31;58.14;100252.64;2085269;85;34137;-62
2022/07/27 07:01:47;;;;;;;3.55;3.05;;;;;;;23.43;57.86;100252.36;2070473;86;29783;-61
2022/07/27 07:04:50;;;;;;;10.20;3.30;;;;;;;23.55;57.79;100253.83;2038623;85;27759;-61
2022/07/27 07:07:53;;;;;;;6.80;3.35;;;;;;;23.70;57.44;100260.05;2085255;85;28683;-61
2022/07/27 07:10:55;;;;;;;5.80;3.20;;;;;;;23.83;57.04;100261.30;2030274;87;32290;-61
2022/07/27 07:13:59;;;;;;;7.87;3.25;;;;;;;23.89;56.32;100265.77;2085132;85;30447;-61
2022/07/27 07:17:01;;;;;;;6.72;3.15;;;;;;;23.98;56.36;100270.31;2085586;85;30253;-62
2022/07/27 07:20:05;;;;;;;6.42;2.30;;;;;;;24.09;56.12;100270.50;2070352;86;27617;-62
2022/07/27 07:23:08;;;;;;;3.40;2.50;;;;;;;24.34;55.88;100264.59;2058193;86;29655;-62
2022/07/27 07:26:09;;;;;;;6.03;2.30;;;;;;;24.76;55.65;100255.95;2085374;85;31859;-63
2022/07/27 07:29:11;;;;;;;3.85;2.10;;;;;;;25.12;54.66;100246.55;2082843;85;33130;-62
2022/07/27 07:32:12;;;;;;;4.20;1.80;;;;;;;25.38;54.23;100245.46;2027172;87;29852;-62
2022/07/27 07:35:14;;;;;;;5.55;2.22;;;;;;;26.07;53.71;100238.05;2059203;85;28176;-62
2022/07/27 07:38:15;;;;;;;1.45;1.35;;;;;;;26.74;53.04;100231.11;2061131;86;28868;-62
2022/07/27 07:41:16;;;;;;;1.95;1.45;;;;;;;27.48;52.38;100232.87;2061140;86;32179;-62
2022/07/27 07:44:18;;;;;;;1.92;1.62;;;;;;;27.87;50.45;100237.23;2036427;86;34130;-62
2022/07/27 07:47:19;;;;;;;2.40;1.35;;;;;;;28.04;49.86;100237.88;2082124;85;30739;-62
2022/07/27 07:50:22;;;;;;;5.50;1.65;;;;;;;28.54;49.15;100239.42;2082251;85;27710;-62
2022/07/27 07:53:24;;;;;;;2.25;1.42;;;;;;;28.94;48.29;100237.08;2027425;87;28664;-63
2022/07/27 07:56:25;;;;;;;1.75;1.35;;;;;;;29.13;47.82;100242.94;2082226;85;31485;-62
2022/07/27 07:59:26;;;;;;;3.10;1.45;;;;;;;29.34;47.38;100242.06;2082171;85;34136;-62
2022/07/27 08:02:28;;;;;;;4.42;2.15;;;;;;;29.50;46.57;100250.56;2057346;86;30077;-62
2022/07/27 08:05:32;;;;;;;3.95;1.95;;;;;;;29.50;46.01;100246.97;2082018;85;28057;-60
2022/07/27 08:08:33;;;;;;;4.22;2.02;;;;;;;29.62;45.92;100251.40;2082255;85;28738;-61
2022/07/27 08:11:36;;;;;;;5.20;2.45;;;;;;;29.85;45.36;100250.55;2081933;85;32211;-61
2022/07/27 08:14:38;;;;;;;3.72;2.00;;;;;;;29.72;44.30;100250.49;2027618;87;32998;-61
2022/07/27 08:17:40;;;;;;;6.33;1.92;;;;;;;29.32;44.18;100248.81;2082139;85;29797;-61
2022/07/27 08:20:41;;;;;;;4.80;2.20;;;;;;;29.23;43.95;100255.88;2082026;85;27724;-61
2022/07/27 08:23:42;;;;;;;6.20;2.27;;;;;;;29.48;43.78;100251.83;2044535;86;29043;-61
2022/07/27 08:26:44;;;;;;;1.87;1.77;;;;;;;29.89;43.98;100260.66;2081743;85;53378;-61
2022/07/27 08:29:46;;;;;;;3.42;1.90;;;;;;;30.35;42.38;100253.65;2084543;84;33393;-61
2022/07/27 08:32:57;;;;;;;3.00;1.60;;;;;;;30.62;42.53;100253.73;2030581;87;30567;-60
2022/07/27 08:35:58;;;;;;;4.90;1.52;;;;;;;30.93;42.07;100257.84;2085597;85;27663;-60
2022/07/27 08:39:05;;;;;;;3.02;1.60;;;;;;;30.99;41.18;100262.50;2085130;85;29967;-62
2022/07/27 08:42:08;;;;;;;3.98;1.82;;;;;;;30.95;40.69;100260.38;2070136;86;31351;-61
2022/07/27 08:45:14;;;;;;;5.50;2.00;;;;;;;30.99;40.45;100260.28;2038263;86;33901;-61
2022/07/27 08:48:16;;;;;;;4.12;2.00;;;;;;;30.88;39.91;100256.23;2085504;85;29634;-61
2022/07/27 08:51:17;;;;;;;5.17;1.70;;;;;;;30.76;39.72;100253.23;2030886;87;27721;-61
2022/07/27 08:54:19;;;;;;;3.25;1.57;;;;;;;30.97;40.18;100249.41;2086089;85;28989;-61
2022/07/27 08:57:20;;;;;;;3.80;1.92;;;;;;;31.29;39.65;100251.56;2070919;86;32250;-61
2022/07/27 09:00:22;;;;;;;2.37;2.00;;;;;;;31.46;38.92;100256.98;2070420;86;33473;-62
2022/07/27 09:03:23;;;;;;;3.05;1.95;;;;;;;31.49;38.70;100250.14;2059351;86;29707;-62
2022/07/27 09:06:49;;;;;;;7.45;1.72;;;;;;;31.68;38.44;100248.42;2086310;85;27655;-62
2022/07/27 09:09:50;;;;;;;8.90;1.60;;;;;;;31.88;38.06;100250.28;2085675;85;29519;-62
2022/07/27 09:12:52;;;;;;;3.65;1.80;;;;;;;31.58;36.95;100258.56;2085526;85;32159;-62
2022/07/27 09:15:58;;;;;;;4.42;1.80;;;;;;;31.19;36.91;100259.75;2086038;85;34525;-62
2022/07/27 09:19:04;;;;;;;4.10;1.70;;;;;;;30.88;36.53;100256.23;2070527;86;30962;-61
2022/07/27 09:22:06;;;;;;;3.15;1.67;;;;;;;30.50;36.87;100260.40;2070161;86;27689;-61
2022/07/27 09:25:09;;;;;;;3.37;1.57;;;;;;;30.31;36.48;100260.64;2040837;86;28647;-61
2022/07/27 09:28:11;;;;;;;2.25;1.42;;;;;;;30.14;35.43;100253.27;2087147;84;31100;-61
2022/07/27 09:31:15;;;;;;;3.60;1.50;;;;;;;30.16;35.93;100254.75;2043174;86;33369;-62
2022/07/27 09:34:31;;;;;;;;;;;;;;;30.27;35.43;100263.52;2097809;84;29558;-62
2022/07/27 09:37:33;;;;;;;4.67;2.58;;;;;;;30.31;35.33;100256.50;2095161;85;27712;-61
2022/07/27 09:40:35;;;;;;;6.25;3.10;;;;;;;30.24;35.87;100254.27;2095888;84;29035;-61
2022/07/27 09:43:50;;;;;;;3.08;2.58;;;;;;;30.16;35.87;100257.52;2068163;85;30603;-62
2022/07/27 09:46:51;;;;;;;3.42;2.40;;;;;;;30.16;35.30;100258.90;2094531;84;34350;-61
2022/07/27 09:49:59;;;;;;;4.95;2.30;;;;;;;29.97;35.37;100259.66;2095314;84;29729;-62
2022/07/27 09:53:20;;;;;;;2.98;2.17;;;;;;;29.83;35.28;100257.34;2041729;86;27610;-62
2022/07/27 09:56:31;;;;;;;4.20;2.00;;;;;;;29.63;34.92;100258.08;2095231;84;28635;-61
2022/07/27 09:59:32;;;;;;;4.00;2.55;;;;;;;29.43;34.83;100251.06;2080241;85;31028;-60
2022/07/27 10:02:33;;;;;;;6.55;2.85;;;;;;;29.23;34.88;100252.25;2080332;85;33605;-61
2022/07/27 10:05:36;;;;;;;5.20;2.37;;;;;;;29.01;35.30;100252.81;2094896;85;30367;-61
2022/07/27 10:08:42;;;;;;;5.92;2.20;;;;;;;29.00;35.64;100254.73;2043163;86;27765;-61
2022/07/27 10:11:45;;;;;;;9.20;2.17;;;;;;;28.98;35.59;100255.45;2095709;85;29906;-61
2022/07/27 10:14:46;;;;;;;6.65;2.10;;;;;;;28.93;35.45;100249.16;2095009;84;30461;-65
2022/07/27 10:17:53;;;;;;;2.55;1.90;;;;;;;28.83;35.13;100254.14;2086469;83;32743;-64
2022/07/27 10:20:56;;;;;;;3.33;2.00;;;;;;;28.58;35.00;100255.90;2083428;84;30005;-63
2022/07/27 10:24:04;;;;;;;4.95;2.60;;;;;;;28.49;35.49;100246.91;2093147;84;28029;-63
2022/07/27 10:27:23;;;;;;;3.30;2.33;;;;;;;28.45;35.55;100258.52;2042827;87;28665;-63
2022/07/27 10:30:26;;;;;;;4.08;2.33;;;;;;;28.34;35.75;100242.81;2078476;85;32244;-63
2022/07/27 10:33:46;;;;;;;4.00;2.87;;;;;;;28.23;35.76;100247.97;2085477;85;33498;-62
2022/07/27 10:36:53;;;;;;;5.60;2.37;;;;;;;28.07;36.20;100249.03;2085294;85;29238;-64
2022/07/27 10:43:27;;;;;;;3.45;1.90;;;;;;;27.81;36.02;100247.62;2059142;85;29849;-65
2022/07/27 10:46:30;;;;;;;3.08;1.85;;;;;;;27.69;36.09;100245.89;2064886;85;31383;-66
2022/07/27 10:49:34;;;;;;;4.40;1.83;;;;;;;27.60;36.24;100249.27;2043488;85;32900;-65
2022/07/27 10:52:52;;;;;;;2.83;1.90;;;;;;;27.56;36.08;100240.50;2075754;85;29651;-65
2022/07/27 10:55:53;;;;;;;3.40;1.60;;;;;;;27.53;36.11;100251.05;2076747;85;27710;-64
2022/07/27 10:58:55;;;;;;;7.67;2.10;;;;;;;27.59;36.24;100262.16;2065137;85;28775;-64
2022/07/27 11:01:59;;;;;;;4.10;1.60;;;;;;;27.72;36.38;100266.12;2063808;85;31456;-64
2022/07/27 11:05:04;;;;;;;6.72;2.20;;;;;;;27.83;36.21;100268.93;2063872;85;34176;-66
2022/07/27 11:08:05;;;;;;;5.12;1.80;;;;;;;27.82;36.09;100258.96;2063304;84;30784;-64
2022/07/27 11:11:10;;;;;;;7.83;1.98;;;;;;;27.74;35.84;100261.30;2062403;85;28235;-64
2022/07/27 11:14:11;;;;;;;;;;;;;;;27.66;35.83;100255.36;2038830;85;28861;-65
2022/07/27 11:17:14;;;;;;;5.05;1.72;;;;;;;27.70;35.84;100257.23;2057312;85;31429;-65
2022/07/27 11:20:22;;;;;;;4.75;2.40;;;;;;;27.79;35.80;100264.88;2062811;85;33747;-64
2022/07/27 11:23:24;;;;;;;7.35;1.60;;;;;;;27.88;35.71;100268.69;2062872;85;29748;-63
2022/07/27 11:26:28;;;;;;;6.65;2.20;;;;;;;28.04;35.42;100269.02;2064625;85;27739;-63
2022/07/27 11:29:39;;;;;;;4.03;1.72;;;;;;;28.09;34.92;100270.34;2068337;85;28164;-63
2022/07/27 11:32:38;;;;;;;3.67;1.57;;;;;;;28.02;34.89;100271.11;2075568;85;31701;-63
2022/07/27 11:35:51;;;;;;;4.00;1.90;;;;;;;27.98;34.99;100272.52;2076443;85;32971;-63
2022/07/27 11:38:54;;;;;;;7.00;1.98;;;;;;;27.97;34.54;100268.60;2076894;84;29982;-64
2022/07/27 11:42:01;;;;;;;5.00;1.60;;;;;;;27.92;34.27;100274.69;2095104;85;28231;-63
2022/07/27 11:45:03;;;;;;;4.72;1.77;;;;;;;27.92;34.52;100271.94;2080355;85;28827;-63
2022/07/27 11:48:10;;;;;;;5.87;1.30;;;;;;;27.92;33.88;100272.44;2058748;85;30787;-62
2022/07/27 11:51:16;;;;;;;3.92;1.55;;;;;;;27.87;33.88;100271.64;2095246;85;34110;-62
2022/07/27 11:54:24;;;;;;;3.45;1.52;;;;;;;27.92;34.14;100272.44;2043007;86;29639;-62
2022/07/27 11:57:31;;;;;;;7.12;1.57;;;;;;;27.96;33.34;100273.77;2095258;84;27671;-62
2022/07/27 12:00:40;;;;;;;6.28;1.72;;;;;;;27.87;33.91;100278.53;2094083;84;28660;-62
2022/07/27 12:03:42;;;;;;;4.00;1.67;;;;;;;27.83;33.73;100280.81;2095238;85;31840;-63
2022/07/27 12:06:59;;;;;;;5.30;1.60;;;;;;;27.73;33.93;100278.34;2074492;85;33521;-63
2022/07/27 12:10:04;;;;;;;5.72;1.60;;;;;;;27.64;33.74;100280.84;2095343;84;30260;-63
2022/07/27 12:13:06;;;;;;;3.95;1.65;;;;;;;27.65;34.11;100278.95;2043084;87;27661;-63
2022/07/27 12:16:07;;;;;;;2.45;1.60;;;;;;;27.69;34.02;100277.01;2095011;85;28572;-63
2022/07/27 12:19:21;;;;;;;4.83;1.35;;;;;;;27.71;33.79;100283.19;2042937;87;32222;-63
2022/07/27 12:22:42;;;;;;;5.80;1.90;;;;;;;27.70;33.63;100279.26;2095320;85;32968;-63
2022/07/27 12:25:48;;;;;;;5.30;2.05;;;;;;;27.63;33.77;100283.80;2095364;85;29643;-63
2022/07/27 12:29:16;;;;;;;6.90;1.52;;;;;;;27.47;33.61;100276.59;2052461;85;27730;-63
2022/07/27 12:32:27;;;;;;;3.92;2.05;;;;;;;27.29;33.46;100282.72;2095333;84;28677;-62
2022/07/27 12:35:52;;;;;;;5.30;1.45;;;;;;;27.21;33.81;100276.45;2043105;86;30903;-63
2022/07/27 12:39:06;;;;;;;5.90;2.33;;;;;;;27.13;33.88;100270.50;2094852;85;34192;-62
2022/07/27 12:42:15;;;;;;;4.08;1.75;;;;;;;27.05;33.82;100274.72;2095300;84;29720;-63
2022/07/27 12:45:31;;;;;;;6.92;1.65;;;;;;;26.96;34.09;100266.52;2031120;87;28188;-63
2022/07/27 12:48:40;;;;;;;5.67;1.30;;;;;;;26.86;33.87;100276.92;2094912;84;28645;-63
2022/07/27 12:51:42;;;;;;;4.83;1.55;;;;;;;26.65;34.04;100263.30;2079973;85;32201;-63
2022/07/27 12:54:43;;;;;;;6.75;1.85;;;;;;;26.55;34.31;100265.45;2080013;85;33346;-62
2022/07/27 12:57:46;;;;;;;7.12;1.65;;;;;;;26.45;34.31;100272.55;2066021;85;31084;-63
2022/07/27 13:00:51;;;;;;;8.50;2.17;;;;;;;26.34;34.18;100263.32;2095244;84;27654;-63
2022/07/27 13:03:52;;;;;;;;;;;;;;;26.21;34.03;100265.30;2097849;84;29049;-63
2022/07/27 13:06:54;;;;;;;6.35;1.77;;;;;;;26.10;34.31;100263.77;2046105;87;32195;-62
2022/07/27 13:09:55;;;;;;;5.78;1.62;;;;;;;25.83;34.16;100269.20;2046578;87;33915;-62
2022/07/27 13:12:57;;;;;;;5.47;1.40;;;;;;;25.68;34.59;100275.43;2045953;86;30446;-63
2022/07/27 13:15:59;;;;;;;2.55;1.20;;;;;;;25.59;34.58;100281.45;2046467;86;28211;-63
2022/07/27 13:19:01;;;;;;;4.60;1.82;;;;;;;25.48;34.39;100281.30;2046103;86;29098;-63
2022/07/27 13:22:04;;;;;;;5.83;1.32;;;;;;;25.36;34.48;100278.56;2094964;85;31711;-63
2022/07/27 13:25:08;;;;;;;3.90;1.47;;;;;;;25.30;34.81;100272.38;2080804;85;33438;-63
2022/07/27 13:28:10;;;;;;;3.80;1.50;;;;;;;25.28;34.93;100268.95;2080343;85;29642;-62
2022/07/27 13:31:11;;;;;;;5.03;1.90;;;;;;;25.31;34.99;100272.73;2073751;85;27844;-62
2022/07/27 13:34:13;;;;;;;3.62;1.50;;;;;;;25.31;34.90;100268.61;2019405;87;28686;-62
2022/07/27 13:37:18;;;;;;;2.87;1.35;;;;;;;25.30;34.85;100270.52;2085452;85;31138;-62
2022/07/27 13:40:20;;;;;;;3.58;1.32;;;;;;;25.26;34.98;100270.52;2085524;85;32988;-62
2022/07/27 13:43:22;;;;;;;5.08;1.30;;;;;;;25.16;35.00;100267.95;2030508;87;30837;-62
2022/07/27 13:46:24;;;;;;;7.30;1.65;;;;;;;25.03;34.93;100271.73;2085149;85;27702;-62
2022/07/27 13:49:26;;;;;;;6.50;1.60;;;;;;;24.87;35.03;100279.42;2070831;86;29806;-62
2022/07/27 13:52:28;;;;;;;6.75;1.45;;;;;;;24.73;35.19;100282.34;2070451;86;32338;-62
2022/07/27 13:55:30;;;;;;;5.28;1.82;;;;;;;24.61;35.28;100285.01;2070576;86;33718;-62
2022/07/27 13:58:31;;;;;;;4.03;1.42;;;;;;;24.47;35.57;100294.23;2045147;86;29672;-62
2022/07/27 14:01:36;;;;;;;7.37;1.52;;;;;;;24.37;35.84;100290.27;2085652;85;27679;-63
2022/07/27 14:04:38;;;;;;;2.47;1.47;;;;;;;24.24;35.98;100292.62;2085511;85;29545;-63
2022/07/27 14:07:42;;;;;;;8.90;1.55;;;;;;;24.05;36.13;100298.71;2030619;86;31041;-63
2022/07/27 14:10:45;;;;;;;4.60;1.20;;;;;;;23.87;36.30;100303.38;2085429;85;33011;-62
2022/07/27 14:13:46;;;;;;;4.58;1.50;;;;;;;23.74;36.58;100311.53;2085274;85;29748;-62
2022/07/27 14:16:48;;;;;;;6.92;2.20;;;;;;;23.62;36.69;100309.57;2064608;86;27665;-63
2022/07/27 14:19:50;;;;;;;4.22;1.77;;;;;;;23.43;36.81;100309.29;2069179;85;29887;-63
2022/07/27 14:22:52;;;;;;;8.55;2.27;;;;;;;23.27;37.23;100308.64;2084889;85;31648;-63